Invercargill, New Zealand
Current Conditions -  °F | °C
As of 1:30 AM on Saturday 29 Nov 2014 (Local Time) from NZCH Reporting Station
Drizzle Drizzle  
Wind Chill: 46°   Ceiling: 2000
Heat Index: 46°   Visibility: 3mi
Dew Point: 46°   Wind: 2mph
Humidity: 100%   Direction: 190°S
Pressure: 29.68"   Gusts: NA
Location:  46.41°S, 168.36°E
Report Text: NZCH 281330Z AUTO 19002KT 5000 +DZ SCT012/// BKN020///BKN038/// 08/08 Q1005 BECMG 9999
Loading
Personal Weather Stations






























Interactive Weather Map New forecast layout! Learn more

10-Day Weather Forecast

Advertisements
Track Severe Weather on mobile